createdAt,value
2022-11-06T00:00:53.595Z,57.00
2022-11-06T00:03:55.109Z,57.30
2022-11-06T00:06:56.400Z,57.40
2022-11-06T00:09:57.771Z,57.40
2022-11-06T00:12:59.691Z,57.50
2022-11-06T00:16:03.310Z,57.70
2022-11-06T00:19:08.636Z,57.30
2022-11-06T00:22:10.206Z,57.50
2022-11-06T00:25:11.899Z,57.70
2022-11-06T00:28:13.609Z,57.60
2022-11-06T00:31:18.567Z,57.90
2022-11-06T00:34:20.103Z,57.80
2022-11-06T00:37:24.724Z,57.60
2022-11-06T00:40:26.104Z,57.80
2022-11-06T00:43:27.495Z,58.10
2022-11-06T00:46:30.173Z,57.90
2022-11-06T00:49:34.735Z,57.80
2022-11-06T00:52:36.107Z,58.60
2022-11-06T00:55:37.693Z,58.00
2022-11-06T00:58:39.411Z,58.10
2022-11-06T01:01:43.346Z,57.90
2022-11-06T01:04:44.982Z,58.10
2022-11-06T01:07:46.611Z,58.10
2022-11-06T01:10:48.028Z,58.20
2022-11-06T01:13:51.039Z,58.30
2022-11-06T01:16:53.012Z,58.00
2022-11-06T01:19:54.610Z,58.10
2022-11-06T01:22:55.974Z,58.30
2022-11-06T01:25:58.092Z,58.30
2022-11-06T01:28:59.886Z,58.30
2022-11-06T01:32:02.093Z,58.20
2022-11-06T01:35:03.938Z,58.10
2022-11-06T01:38:05.533Z,58.20
2022-11-06T01:41:06.782Z,58.30
2022-11-06T01:44:37.948Z,58.50
2022-11-06T01:47:39.950Z,58.40
2022-11-06T01:50:44.364Z,58.30
2022-11-06T01:53:46.104Z,58.30
2022-11-06T01:56:50.815Z,58.30
2022-11-06T01:59:53.730Z,58.40
2022-11-06T02:02:56.177Z,58.70
2022-11-06T02:05:58.463Z,58.60
2022-11-06T02:09:01.596Z,58.70
2022-11-06T02:12:10.628Z,58.80
2022-11-06T02:15:20.565Z,58.90
2022-11-06T02:18:38.094Z,59.00
2022-11-06T02:22:13.076Z,59.10
2022-11-06T02:25:20.090Z,59.10
2022-11-06T02:28:27.818Z,59.40
2022-11-06T02:31:33.557Z,59.20
2022-11-06T02:34:36.576Z,59.10
2022-11-06T02:37:41.296Z,59.30
2022-11-06T02:40:48.679Z,59.40
2022-11-06T02:43:54.992Z,59.40
2022-11-06T02:47:00.293Z,59.50
2022-11-06T02:50:06.359Z,59.60
2022-11-06T02:53:10.825Z,59.70
2022-11-06T02:56:16.024Z,59.50
2022-11-06T02:59:21.525Z,59.60
2022-11-06T03:02:27.608Z,59.80
2022-11-06T03:05:32.857Z,59.70
2022-11-06T03:08:39.048Z,60.00
2022-11-06T03:11:41.340Z,59.90
2022-11-06T03:14:51.705Z,60.00
2022-11-06T03:18:01.330Z,60.20
2022-11-06T03:21:07.183Z,60.10
2022-11-06T03:24:15.965Z,60.70
2022-11-06T03:27:22.597Z,60.40
2022-11-06T03:30:24.815Z,60.20
2022-11-06T03:33:33.557Z,60.20
2022-11-06T03:36:41.257Z,60.50
2022-11-06T03:39:51.362Z,60.70
2022-11-06T03:42:56.639Z,60.50
2022-11-06T03:46:01.181Z,60.30
2022-11-06T03:49:06.688Z,60.80
2022-11-06T03:52:12.981Z,61.20
2022-11-06T03:55:18.147Z,61.00
2022-11-06T03:58:22.948Z,61.10
2022-11-06T04:01:31.763Z,61.10
2022-11-06T04:04:38.091Z,61.10
2022-11-06T04:08:04.971Z,61.20
2022-11-06T04:11:20.116Z,61.30
2022-11-06T04:14:25.590Z,61.60
2022-11-06T04:17:29.357Z,61.30
2022-11-06T04:20:55.656Z,61.30
2022-11-06T04:24:30.119Z,61.50
2022-11-06T04:27:51.304Z,61.70
2022-11-06T04:31:01.462Z,61.50
2022-11-06T04:34:11.675Z,61.70
2022-11-06T04:37:20.715Z,61.80
2022-11-06T04:40:28.466Z,61.90
2022-11-06T04:43:38.319Z,61.90
2022-11-06T04:46:47.101Z,62.00
2022-11-06T04:49:51.784Z,62.00
2022-11-06T04:52:54.739Z,62.20
2022-11-06T04:56:00.792Z,62.20
2022-11-06T04:59:05.612Z,62.20
2022-11-06T05:02:07.105Z,62.30
2022-11-06T05:05:09.322Z,62.30
2022-11-06T05:08:14.000Z,62.60
2022-11-06T05:11:15.691Z,62.30
2022-11-06T05:14:17.067Z,62.50
2022-11-06T05:17:18.676Z,63.00
2022-11-06T05:20:20.654Z,62.40
2022-11-06T05:23:21.829Z,62.70
2022-11-06T05:26:23.289Z,62.60
2022-11-06T05:29:24.606Z,62.40
2022-11-06T05:32:25.976Z,62.70
2022-11-06T05:35:28.018Z,62.50
2022-11-06T05:38:29.839Z,62.70
2022-11-06T05:41:31.265Z,62.60
2022-11-06T05:44:32.655Z,62.70
2022-11-06T05:47:34.628Z,63.20
2022-11-06T05:50:36.588Z,62.50
2022-11-06T05:53:38.339Z,62.70
2022-11-06T05:56:39.709Z,62.70
2022-11-06T05:59:41.403Z,62.90
2022-11-06T06:02:43.255Z,62.40
2022-11-06T06:05:45.846Z,62.50
2022-11-06T06:08:47.203Z,62.80
2022-11-06T06:11:50.822Z,62.70
2022-11-06T06:14:52.409Z,62.60
2022-11-06T06:17:54.069Z,62.40
2022-11-06T06:20:58.257Z,62.70
2022-11-06T06:23:59.640Z,62.50
2022-11-06T06:27:01.146Z,62.50
2022-11-06T06:30:02.528Z,62.60
2022-11-06T06:33:05.247Z,62.70
2022-11-06T06:36:08.449Z,62.50
2022-11-06T06:39:09.946Z,62.40
2022-11-06T06:42:11.313Z,62.60
2022-11-06T06:45:12.754Z,62.70
2022-11-06T06:48:14.934Z,62.60
2022-11-06T06:51:22.633Z,63.20
2022-11-06T06:54:25.225Z,62.50
2022-11-06T06:57:26.577Z,62.60
2022-11-06T07:00:29.012Z,62.60
2022-11-06T07:03:31.208Z,62.70
2022-11-06T07:06:33.218Z,62.30
2022-11-06T07:09:34.605Z,62.60
2022-11-06T07:12:39.147Z,62.50
2022-11-06T07:15:40.568Z,62.40
2022-11-06T07:18:42.239Z,62.50
2022-11-06T07:21:44.205Z,62.40
2022-11-06T07:24:45.620Z,62.60
2022-11-06T07:27:47.054Z,62.60
2022-11-06T07:30:48.442Z,62.70
2022-11-06T07:33:49.915Z,62.90
2022-11-06T07:36:52.031Z,62.40
2022-11-06T07:39:53.427Z,62.60
2022-11-06T07:42:54.805Z,62.60
2022-11-06T07:46:00.057Z,62.70
2022-11-06T07:49:01.895Z,62.70
2022-11-06T07:52:05.035Z,62.70
2022-11-06T07:55:07.047Z,62.70
2022-11-06T07:58:08.458Z,62.60
2022-11-06T08:01:18.225Z,62.90
2022-11-06T08:04:20.186Z,62.90
2022-11-06T08:07:22.297Z,63.40
2022-11-06T08:10:23.731Z,63.00
2022-11-06T08:13:25.738Z,63.10
2022-11-06T08:16:27.408Z,63.10
2022-11-06T08:19:31.924Z,63.00
2022-11-06T08:22:33.892Z,63.20
2022-11-06T08:25:35.610Z,63.30
2022-11-06T08:28:37.212Z,63.10
2022-11-06T08:31:38.751Z,63.20
2022-11-06T08:34:41.422Z,63.40
2022-11-06T08:37:43.764Z,63.30
2022-11-06T08:40:49.359Z,63.40
2022-11-06T08:43:53.882Z,63.30
2022-11-06T08:46:55.254Z,63.40
2022-11-06T08:49:56.675Z,63.40
2022-11-06T08:53:00.199Z,63.80
2022-11-06T08:56:03.047Z,63.50
2022-11-06T08:59:04.461Z,63.40
2022-11-06T09:02:06.172Z,63.70
2022-11-06T09:05:08.162Z,63.50
2022-11-06T09:08:13.914Z,63.60
2022-11-06T09:11:15.759Z,63.70
2022-11-06T09:14:17.163Z,63.90
2022-11-06T09:17:22.496Z,63.80
2022-11-06T09:20:28.502Z,63.90
2022-11-06T09:23:30.472Z,63.70
2022-11-06T09:26:31.935Z,64.30
2022-11-06T09:29:33.799Z,64.20
2022-11-06T09:32:45.191Z,64.50
2022-11-06T09:35:46.718Z,64.00
2022-11-06T09:38:48.705Z,64.40
2022-11-06T09:41:55.414Z,78.40
2022-11-06T09:45:07.488Z,64.40
2022-11-06T09:48:18.509Z,64.40
2022-11-06T09:51:30.874Z,64.30
2022-11-06T09:54:38.201Z,64.20
2022-11-06T09:57:46.713Z,65.10
2022-11-06T10:00:49.725Z,64.70
2022-11-06T10:03:54.479Z,64.40
2022-11-06T10:06:55.983Z,64.60
2022-11-06T10:09:58.573Z,64.30
2022-11-06T10:13:23.083Z,64.30
2022-11-06T10:16:34.212Z,64.20
2022-11-06T10:19:40.579Z,64.10
2022-11-06T10:22:52.874Z,64.10
2022-11-06T10:26:06.907Z,64.20
2022-11-06T10:29:22.649Z,64.20
2022-11-06T10:32:34.920Z,64.20
2022-11-06T10:35:40.892Z,64.40
2022-11-06T10:38:48.220Z,64.30
2022-11-06T10:41:57.771Z,78.80
2022-11-06T10:45:04.067Z,64.50
2022-11-06T10:48:20.479Z,64.30
2022-11-06T10:51:36.876Z,64.50
2022-11-06T10:54:51.575Z,64.70
2022-11-06T10:57:57.621Z,64.80
2022-11-06T11:01:03.928Z,64.60
2022-11-06T11:04:05.405Z,65.50
2022-11-06T11:07:18.852Z,65.10
2022-11-06T11:10:27.547Z,65.10
2022-11-06T11:13:29.897Z,65.00
2022-11-06T11:16:34.001Z,65.10
2022-11-06T11:19:37.581Z,65.70
2022-11-06T11:22:39.246Z,65.10
2022-11-06T11:25:43.183Z,65.10
2022-11-06T11:28:51.095Z,64.90
2022-11-06T11:31:55.343Z,65.10
2022-11-06T11:34:57.678Z,65.00
2022-11-06T11:38:10.150Z,64.80
2022-11-06T11:41:14.283Z,64.60
2022-11-06T11:44:17.771Z,64.70
2022-11-06T11:47:22.135Z,64.90
2022-11-06T11:50:28.337Z,64.70
2022-11-06T11:53:30.824Z,64.40
2022-11-06T11:57:02.491Z,64.60
2022-11-06T12:00:02.020Z,64.50
2022-11-06T12:03:11.652Z,64.40
2022-11-06T12:06:15.629Z,63.90
2022-11-06T12:09:17.599Z,64.10
2022-11-06T12:12:23.439Z,64.00
2022-11-06T12:15:28.560Z,63.70
2022-11-06T12:18:33.122Z,63.50
2022-11-06T12:21:37.609Z,63.70
2022-11-06T12:24:45.862Z,63.60
2022-11-06T12:27:53.053Z,63.50
2022-11-06T12:31:02.633Z,63.70
2022-11-06T12:34:09.882Z,63.70
2022-11-06T12:37:21.431Z,63.70
2022-11-06T12:40:28.597Z,63.80
2022-11-06T12:43:36.708Z,63.70
2022-11-06T12:46:47.784Z,63.70
2022-11-06T12:50:10.427Z,63.60
2022-11-06T12:53:23.751Z,63.70
2022-11-06T12:56:32.818Z,63.60
2022-11-06T12:59:47.993Z,63.50
2022-11-06T13:03:07.571Z,63.40
2022-11-06T13:06:14.912Z,63.50
2022-11-06T13:09:22.854Z,63.40
2022-11-06T13:12:31.703Z,63.30
2022-11-06T13:15:39.763Z,63.20
2022-11-06T13:18:50.373Z,63.30
2022-11-06T13:22:11.592Z,63.30
2022-11-06T13:25:19.700Z,63.10
2022-11-06T13:28:27.753Z,63.00
2022-11-06T13:31:36.318Z,63.00
2022-11-06T13:34:40.586Z,63.10
2022-11-06T13:37:46.828Z,63.00
2022-11-06T13:40:52.787Z,62.80
2022-11-06T13:43:59.239Z,62.80
2022-11-06T13:47:08.601Z,62.50
2022-11-06T13:50:16.148Z,62.40
2022-11-06T13:53:22.949Z,62.30
2022-11-06T13:56:46.664Z,62.30
2022-11-06T14:00:02.431Z,62.20
2022-11-06T14:03:28.905Z,62.10
2022-11-06T14:06:32.348Z,61.70
2022-11-06T14:09:35.608Z,61.70
2022-11-06T14:12:37.187Z,61.70
2022-11-06T14:15:41.218Z,61.70
2022-11-06T14:18:42.791Z,61.30
2022-11-06T14:21:47.298Z,61.40
2022-11-06T14:24:48.784Z,61.00
2022-11-06T14:28:00.685Z,61.00
2022-11-06T14:31:23.740Z,61.10
2022-11-06T14:34:29.073Z,61.10
2022-11-06T14:37:46.166Z,60.80
2022-11-06T14:40:47.873Z,60.40
2022-11-06T14:43:50.640Z,60.40
2022-11-06T14:46:56.162Z,60.10
2022-11-06T14:50:00.658Z,59.90
2022-11-06T14:53:07.068Z,59.60
2022-11-06T14:56:11.208Z,59.50
2022-11-06T14:59:19.942Z,59.80
2022-11-06T15:02:25.898Z,59.60
2022-11-06T15:05:29.411Z,59.30
2022-11-06T15:08:56.077Z,59.30
2022-11-06T15:12:03.643Z,59.10
2022-11-06T15:15:15.011Z,59.30
2022-11-06T15:18:19.563Z,59.20
2022-11-06T15:21:23.864Z,59.70
2022-11-06T15:24:28.199Z,59.30
2022-11-06T15:27:42.871Z,59.10
2022-11-06T15:30:49.204Z,58.80
2022-11-06T15:33:58.096Z,58.60
2022-11-06T15:37:09.251Z,58.30
2022-11-06T15:40:23.895Z,58.20
2022-11-06T15:43:30.399Z,57.50
2022-11-06T15:46:31.809Z,57.70
2022-11-06T15:49:33.422Z,57.60
2022-11-06T15:52:34.862Z,57.30
2022-11-06T15:55:37.371Z,57.10
2022-11-06T15:58:39.453Z,57.10
2022-11-06T16:01:46.125Z,57.10
2022-11-06T16:04:49.308Z,56.90
2022-11-06T16:07:51.455Z,56.40
2022-11-06T16:10:54.015Z,56.70
2022-11-06T16:13:56.336Z,56.50
2022-11-06T16:17:09.185Z,56.60
2022-11-06T16:20:13.315Z,56.60
2022-11-06T16:23:18.775Z,56.60
2022-11-06T16:26:24.183Z,56.60
2022-11-06T16:29:28.757Z,56.10
2022-11-06T16:32:33.209Z,56.20
2022-11-06T16:35:36.351Z,56.30
2022-11-06T16:38:42.612Z,56.10
2022-11-06T16:41:59.613Z,69.80
2022-11-06T16:45:15.371Z,55.80
2022-11-06T16:48:34.848Z,55.60
2022-11-06T16:51:36.442Z,55.50
2022-11-06T16:54:37.873Z,55.70
2022-11-06T16:57:44.473Z,55.60
2022-11-06T17:00:57.972Z,55.50
2022-11-06T17:04:02.319Z,55.30
2022-11-06T17:07:03.832Z,55.50
2022-11-06T17:10:20.127Z,55.60
2022-11-06T17:13:23.160Z,55.80
2022-11-06T17:16:27.105Z,55.80
2022-11-06T17:19:29.227Z,55.90
2022-11-06T17:22:30.734Z,55.70
2022-11-06T17:25:32.003Z,55.90
2022-11-06T17:28:33.623Z,55.80
2022-11-06T17:31:35.785Z,55.70
2022-11-06T17:34:37.169Z,55.90
2022-11-06T17:37:38.649Z,55.70
2022-11-06T17:40:40.041Z,56.10
2022-11-06T17:43:41.482Z,56.30
2022-11-06T17:46:46.507Z,55.80
2022-11-06T17:49:48.065Z,56.40
2022-11-06T17:52:49.845Z,56.20
2022-11-06T17:55:51.834Z,55.90
2022-11-06T17:58:53.335Z,55.70
2022-11-06T18:01:55.613Z,55.90
2022-11-06T18:04:57.324Z,56.00
2022-11-06T18:07:58.612Z,55.90
2022-11-06T18:11:00.204Z,56.10
2022-11-06T18:14:02.352Z,56.10
2022-11-06T18:17:04.607Z,55.80
2022-11-06T18:20:07.033Z,55.70
2022-11-06T18:23:08.679Z,55.60
2022-11-06T18:26:10.120Z,56.00
2022-11-06T18:29:12.348Z,56.00
2022-11-06T18:32:14.344Z,55.90
2022-11-06T18:35:15.759Z,55.90
2022-11-06T18:38:17.466Z,55.70
2022-11-06T18:41:21.396Z,56.30
2022-11-06T18:44:22.872Z,55.50
2022-11-06T18:47:24.812Z,55.80
2022-11-06T18:50:26.052Z,56.10
2022-11-06T18:53:27.593Z,56.20
2022-11-06T18:56:29.433Z,55.80
2022-11-06T18:59:30.878Z,56.10
2022-11-06T19:02:33.636Z,56.00
2022-11-06T19:05:35.366Z,55.80
2022-11-06T19:08:36.743Z,55.80
2022-11-06T19:11:38.574Z,55.80
2022-11-06T19:14:39.945Z,55.70
2022-11-06T19:17:45.088Z,55.90
2022-11-06T19:20:46.441Z,55.70
2022-11-06T19:23:47.991Z,55.70
2022-11-06T19:26:49.745Z,55.40
2022-11-06T19:29:51.811Z,55.70
2022-11-06T19:32:53.813Z,55.50
2022-11-06T19:35:55.292Z,55.60
2022-11-06T19:38:57.631Z,55.50
2022-11-06T19:42:02.660Z,70.20
2022-11-06T19:45:05.083Z,55.80
2022-11-06T19:48:07.274Z,55.60
2022-11-06T19:51:10.584Z,56.00
2022-11-06T19:54:12.150Z,55.90
2022-11-06T19:57:29.313Z,56.00
2022-11-06T20:00:32.016Z,56.30
2022-11-06T20:03:34.018Z,55.90
2022-11-06T20:06:38.188Z,56.30
2022-11-06T20:09:39.562Z,56.20
2022-11-06T20:12:41.253Z,56.20
2022-11-06T20:15:42.868Z,56.10
2022-11-06T20:18:49.109Z,56.00
2022-11-06T20:21:50.511Z,56.60
2022-11-06T20:24:52.012Z,56.40
2022-11-06T20:27:53.231Z,56.30
2022-11-06T20:30:55.289Z,56.50
2022-11-06T20:33:57.312Z,56.20
2022-11-06T20:37:01.922Z,56.30
2022-11-06T20:40:04.166Z,56.50
2022-11-06T20:43:08.790Z,56.50
2022-11-06T20:46:10.889Z,56.60
2022-11-06T20:49:13.009Z,57.20
2022-11-06T20:52:15.463Z,56.70
2022-11-06T20:55:20.417Z,56.50
2022-11-06T20:58:21.825Z,56.60
2022-11-06T21:01:25.218Z,56.80
2022-11-06T21:04:27.365Z,56.50
2022-11-06T21:07:28.846Z,57.00
2022-11-06T21:10:30.295Z,56.90
2022-11-06T21:13:32.445Z,56.90
2022-11-06T21:16:35.681Z,57.00
2022-11-06T21:19:37.758Z,56.70
2022-11-06T21:22:39.223Z,56.90
2022-11-06T21:25:45.101Z,56.70
2022-11-06T21:28:47.083Z,57.00
2022-11-06T21:31:49.459Z,57.00
2022-11-06T21:34:51.543Z,57.10
2022-11-06T21:37:52.934Z,56.90
2022-11-06T21:40:54.420Z,57.20
2022-11-06T21:43:59.081Z,57.20
2022-11-06T21:47:00.532Z,57.30
2022-11-06T21:50:03.417Z,57.30
2022-11-06T21:53:19.504Z,57.40
2022-11-06T21:56:25.923Z,57.30
2022-11-06T21:59:29.341Z,57.20
2022-11-06T22:02:30.879Z,57.40
2022-11-06T22:05:32.912Z,57.40
2022-11-06T22:08:36.471Z,57.60
2022-11-06T22:11:39.484Z,57.40
2022-11-06T22:14:44.126Z,57.60
2022-11-06T22:17:45.567Z,57.60
2022-11-06T22:20:47.402Z,57.60
2022-11-06T22:23:49.764Z,57.60
2022-11-06T22:26:53.237Z,57.40
2022-11-06T22:29:54.665Z,57.30
2022-11-06T22:32:56.126Z,57.60
2022-11-06T22:36:02.038Z,57.80
2022-11-06T22:39:04.985Z,57.60
2022-11-06T22:42:06.914Z,57.50
2022-11-06T22:45:09.721Z,57.70
2022-11-06T22:48:11.293Z,57.80
2022-11-06T22:51:16.659Z,57.90
2022-11-06T22:54:18.177Z,57.80
2022-11-06T22:57:19.582Z,58.10
2022-11-06T23:00:22.227Z,58.30
2022-11-06T23:03:25.231Z,58.30
2022-11-06T23:06:27.659Z,58.30
2022-11-06T23:09:29.047Z,58.60
2022-11-06T23:12:30.406Z,58.80
2022-11-06T23:15:32.537Z,59.00
2022-11-06T23:18:34.015Z,58.70
2022-11-06T23:21:35.870Z,58.80
2022-11-06T23:24:37.782Z,59.30
2022-11-06T23:27:39.685Z,59.10
2022-11-06T23:30:40.968Z,59.20
2022-11-06T23:33:42.756Z,59.10
2022-11-06T23:36:44.780Z,58.90
2022-11-06T23:39:46.398Z,59.20
2022-11-06T23:42:48.309Z,59.40
2022-11-06T23:45:50.586Z,59.40
2022-11-06T23:48:52.330Z,59.60
2022-11-06T23:51:54.454Z,59.50
2022-11-06T23:54:55.902Z,59.40
2022-11-06T23:58:00.287Z,59.40
